Time;durP1;ratioP1;P1;durP2;ratioP2;P2;SDS_P1;SDS_P2;PMS_P1;PMS_P2;Temp;Humidity;BMP_temperature;BMP_pressure;BME280_temperature;BME280_humidity;BME280_pressure;Samples;Min_cycle;Max_cycle;Signal;HPM_P1;HPM_P2
2022/05/20 00:00:33;;;;;;;2.42;1.27;;;24.10;99.90;;;;;;5036612;28;20204;-78
2022/05/20 00:03:00;;;;;;;5.15;1.35;;;24.10;99.90;;;;;;5036501;28;20239;-78
2022/05/20 00:05:27;;;;;;;6.85;1.50;;;24.10;99.90;;;;;;5036778;28;20259;-78
2022/05/20 00:07:54;;;;;;;6.03;1.33;;;24.10;99.90;;;;;;5037181;28;20227;-78
2022/05/20 00:10:23;;;;;;;1.15;1.15;;;24.10;99.90;;;;;;5036414;28;20563;-78
2022/05/20 00:12:51;;;;;;;1.77;1.30;;;24.10;99.90;;;;;;5036462;28;20221;-78
2022/05/20 00:15:21;;;;;;;5.38;1.40;;;24.10;99.90;;;;;;5035425;28;20205;-78
2022/05/20 00:17:48;;;;;;;3.90;1.50;;;24.10;99.90;;;;;;5035498;28;20212;-78
2022/05/20 00:20:17;;;;;;;5.68;1.60;;;24.10;99.90;;;;;;5035834;28;20289;-78
2022/05/20 00:22:44;;;;;;;5.93;1.60;;;24.10;99.90;;;;;;5035974;28;20573;-78
2022/05/20 00:27:59;;;;;;;1.02;0.95;;;24.10;99.90;;;;;;5035155;28;20216;-78
2022/05/20 00:30:27;;;;;;;4.05;1.48;;;24.10;99.90;;;;;;5035357;28;20201;-78
2022/05/20 00:32:54;;;;;;;1.10;1.10;;;24.10;99.90;;;;;;5035353;28;20312;-78
2022/05/20 00:35:22;;;;;;;6.28;1.27;;;24.10;99.90;;;;;;5035534;28;20203;-78
2022/05/20 00:37:49;;;;;;;3.33;1.33;;;24.10;99.90;;;;;;5036507;28;20192;-78
2022/05/20 00:40:25;;;;;;;2.45;1.15;;;24.10;99.90;;;;;;5036685;28;20258;-78
2022/05/20 00:42:51;;;;;;;1.15;1.15;;;24.10;99.90;;;;;;5035950;28;20225;-78
2022/05/20 00:45:20;;;;;;;2.70;1.42;;;24.10;99.90;;;;;;5035790;28;20243;-78
2022/05/20 00:47:47;;;;;;;6.05;1.45;;;24.10;99.90;;;;;;5035576;28;20217;-78
2022/05/20 00:50:17;;;;;;;1.52;1.42;;;24.10;99.90;;;;;;5034857;28;20753;-78
2022/05/20 00:52:47;;;;;;;2.80;1.60;;;24.10;99.90;;;;;;5035041;28;20224;-78
2022/05/20 00:55:18;;;;;;;8.10;1.90;;;24.10;99.90;;;;;;5034823;28;20189;-78
2022/05/20 00:57:51;;;;;;;2.08;1.50;;;24.10;99.90;;;;;;5034936;28;20192;-78
2022/05/20 01:00:27;;;;;;;2.20;1.30;;;24.10;99.90;;;;;;5038806;28;20244;-78
2022/05/20 01:02:59;;;;;;;1.80;1.35;;;24.10;99.90;;;;;;5038055;28;20246;-78
2022/05/20 01:05:28;;;;;;;1.27;1.17;;;24.00;99.90;;;;;;5037828;28;20192;-78
2022/05/20 01:07:56;;;;;;;3.17;1.52;;;24.10;99.90;;;;;;5037643;28;20220;-78
2022/05/20 01:10:23;;;;;;;3.40;1.40;;;24.00;99.90;;;;;;5038030;28;20212;-78
2022/05/20 01:12:51;;;;;;;1.75;1.63;;;24.00;99.90;;;;;;5038592;28;20221;-78
2022/05/20 01:15:18;;;;;;;15.07;1.85;;;24.00;99.90;;;;;;5038177;28;20227;-78
2022/05/20 01:17:48;;;;;;;3.20;2.13;;;24.00;99.90;;;;;;5035263;28;20307;-78
2022/05/20 01:20:20;;;;;;;1.77;1.30;;;24.10;99.90;;;;;;5035937;28;20197;-78
2022/05/20 01:22:59;;;;;;;1.25;1.20;;;24.00;99.90;;;;;;5034934;28;20307;-78
2022/05/20 01:25:29;;;;;;;6.53;1.42;;;24.10;99.90;;;;;;5034301;28;20193;-78
2022/05/20 01:27:55;;;;;;;4.45;1.40;;;24.10;99.90;;;;;;5034971;28;20220;-78
2022/05/20 01:30:25;;;;;;;1.92;1.35;;;24.10;99.90;;;;;;5035350;28;20262;-78
2022/05/20 01:32:52;;;;;;;5.53;1.70;;;24.00;99.90;;;;;;5034111;28;20231;-78
2022/05/20 01:35:24;;;;;;;2.55;1.50;;;24.10;99.90;;;;;;5034114;28;20227;-78
2022/05/20 01:37:52;;;;;;;4.53;1.45;;;24.00;99.90;;;;;;5033894;28;20629;-78
2022/05/20 01:40:19;;;;;;;1.15;1.15;;;24.00;99.90;;;;;;5033756;28;20205;-78
2022/05/20 01:42:51;;;;;;;2.95;1.70;;;24.10;99.90;;;;;;5034325;28;20227;-78
2022/05/20 01:45:27;;;;;;;3.10;1.45;;;24.00;99.90;;;;;;5035060;28;20265;-78
2022/05/20 01:48:02;;;;;;;1.75;1.48;;;24.00;99.90;;;;;;5034368;28;20196;-78
2022/05/20 01:50:34;;;;;;;1.48;1.33;;;24.00;99.90;;;;;;5034385;28;20528;-78
2022/05/20 01:53:09;;;;;;;1.08;1.08;;;24.00;99.90;;;;;;5034094;28;20224;-78
2022/05/20 01:55:41;;;;;;;4.57;1.50;;;24.10;99.90;;;;;;5035110;28;20554;-78
2022/05/20 01:58:15;;;;;;;1.92;1.77;;;24.00;99.90;;;;;;5035134;28;20298;-78
2022/05/20 02:00:44;;;;;;;2.53;1.40;;;24.00;99.90;;;;;;5035865;28;20223;-78
2022/05/20 02:03:17;;;;;;;1.92;1.20;;;24.00;99.90;;;;;;5058404;22;20226;-77
2022/05/20 02:05:50;;;;;;;1.45;1.20;;;24.00;99.90;;;;;;5033764;28;20184;-77
2022/05/20 02:08:29;;;;;;;2.45;1.42;;;24.10;99.90;;;;;;5033253;28;20631;-77
2022/05/20 02:11:02;;;;;;;1.42;1.40;;;24.10;99.90;;;;;;5033417;28;20185;-76
2022/05/20 02:13:33;;;;;;;1.65;1.50;;;24.00;99.90;;;;;;5033631;28;20227;-77
2022/05/20 02:16:03;;;;;;;3.83;1.45;;;24.00;99.90;;;;;;5033907;28;20200;-77
2022/05/20 02:18:35;;;;;;;2.15;1.15;;;24.00;99.90;;;;;;5033640;28;20263;-77
2022/05/20 02:21:06;;;;;;;5.50;1.20;;;24.00;99.90;;;;;;5033568;28;20280;-77
2022/05/20 02:23:38;;;;;;;3.00;1.23;;;24.10;99.90;;;;;;5033197;28;20594;-77
2022/05/20 02:26:09;;;;;;;6.22;1.40;;;24.10;99.90;;;;;;5033540;28;20209;-77
2022/05/20 02:28:40;;;;;;;3.85;1.73;;;24.00;99.90;;;;;;5033178;28;20825;-78
2022/05/20 02:31:11;;;;;;;5.25;1.30;;;24.00;99.90;;;;;;5033590;28;20189;-77
2022/05/20 02:33:39;;;;;;;1.30;1.25;;;24.00;99.90;;;;;;5033358;28;20220;-77
2022/05/20 02:36:08;;;;;;;3.58;1.65;;;24.00;99.90;;;;;;5033070;28;20207;-77
2022/05/20 02:38:36;;;;;;;1.60;1.50;;;24.00;99.90;;;;;;5033411;28;20204;-77
2022/05/20 02:41:03;;;;;;;1.10;1.08;;;24.00;99.90;;;;;;5033413;28;20196;-77
2022/05/20 02:43:30;;;;;;;2.35;1.38;;;24.00;99.90;;;;;;5033302;28;20221;-78
2022/05/20 02:45:58;;;;;;;1.80;1.20;;;24.00;99.90;;;;;;5033350;28;20328;-77
2022/05/20 02:48:25;;;;;;;2.50;1.40;;;24.00;99.90;;;;;;5033279;28;20220;-77
2022/05/20 02:50:52;;;;;;;4.95;1.40;;;24.00;99.90;;;;;;5033279;28;20204;-77
2022/05/20 02:53:19;;;;;;;1.42;1.27;;;24.00;99.90;;;;;;5037137;28;20220;-77
2022/05/20 02:55:48;;;;;;;1.58;1.23;;;24.00;99.90;;;;;;5036821;28;20690;-77
2022/05/20 03:06:24;;;;;;;4.22;1.20;;;24.00;99.90;;;;;;5036813;28;20260;-77
2022/05/20 03:08:52;;;;;;;1.90;1.10;;;24.00;99.90;;;;;;5036813;28;20227;-77
2022/05/20 03:11:20;;;;;;;1.83;1.40;;;24.00;99.90;;;;;;5036789;28;20566;-77
2022/05/20 03:13:48;;;;;;;2.88;1.50;;;24.00;99.90;;;;;;5036707;28;20288;-77
2022/05/20 03:16:15;;;;;;;1.40;1.30;;;24.00;99.90;;;;;;5037054;28;20315;-77
2022/05/20 03:18:42;;;;;;;1.58;1.42;;;24.00;99.90;;;;;;5036434;28;20232;-77
2022/05/20 03:21:08;;;;;;;1.95;1.48;;;24.00;99.90;;;;;;5036675;28;20291;-78
2022/05/20 03:23:35;;;;;;;2.58;1.38;;;24.00;99.90;;;;;;5036613;28;20576;-77
2022/05/20 03:26:04;;;;;;;2.50;1.27;;;24.00;99.90;;;;;;5036128;28;20204;-78
2022/05/20 03:28:33;;;;;;;2.28;1.33;;;24.00;99.90;;;;;;5036364;28;20213;-77
2022/05/20 03:31:05;;;;;;;2.38;1.10;;;24.00;99.90;;;;;;5036399;28;20204;-78
2022/05/20 03:33:31;;;;;;;2.47;1.02;;;24.00;99.90;;;;;;5036365;28;20252;-77
2022/05/20 03:35:58;;;;;;;5.18;1.50;;;24.00;99.90;;;;;;5036373;28;20283;-77
2022/05/20 03:38:25;;;;;;;3.50;1.50;;;24.00;99.90;;;;;;5036295;28;20247;-77
2022/05/20 03:40:52;;;;;;;1.45;1.35;;;24.00;99.90;;;;;;5036239;28;20296;-77
2022/05/20 03:43:19;;;;;;;5.10;1.55;;;24.00;99.90;;;;;;5036242;28;20222;-77
2022/05/20 03:45:47;;;;;;;1.40;1.30;;;24.00;99.90;;;;;;5035734;28;20559;-77
2022/05/20 03:48:14;;;;;;;1.92;1.50;;;24.00;99.90;;;;;;5036221;28;20209;-77
2022/05/20 03:50:41;;;;;;;5.35;1.33;;;24.00;99.90;;;;;;5036074;28;20205;-77
2022/05/20 03:53:08;;;;;;;2.30;1.30;;;24.00;99.90;;;;;;5035962;28;20303;-77
2022/05/20 03:55:35;;;;;;;1.70;1.30;;;24.00;99.90;;;;;;5036090;28;20229;-77
2022/05/20 03:58:02;;;;;;;2.83;1.42;;;24.00;99.90;;;;;;5035702;28;20298;-77
2022/05/20 04:00:29;;;;;;;1.52;1.40;;;24.00;99.90;;;;;;5035610;28;20197;-77
2022/05/20 04:02:56;;;;;;;9.23;1.60;;;24.00;99.90;;;;;;5034542;28;20256;-78
2022/05/20 04:05:23;;;;;;;3.50;1.30;;;24.00;99.90;;;;;;5035797;28;20331;-78
2022/05/20 04:07:50;;;;;;;2.38;1.10;;;24.00;99.90;;;;;;5035789;28;20201;-78
2022/05/20 04:10:17;;;;;;;2.63;1.33;;;24.00;99.90;;;;;;5035650;28;20308;-77
2022/05/20 04:12:44;;;;;;;2.15;1.40;;;24.00;99.90;;;;;;5036465;28;20227;-79
2022/05/20 04:15:13;;;;;;;1.30;1.08;;;24.00;99.90;;;;;;5037653;28;20201;-79
2022/05/20 04:17:40;;;;;;;1.75;1.30;;;24.00;99.90;;;;;;5037826;28;20208;-79
2022/05/20 04:20:10;;;;;;;4.97;1.35;;;24.00;99.90;;;;;;5036912;28;20197;-80
2022/05/20 04:22:39;;;;;;;2.88;1.20;;;24.00;99.90;;;;;;5036292;28;20341;-80
2022/05/20 04:25:07;;;;;;;6.38;1.42;;;24.00;99.90;;;;;;5035914;28;20276;-79
2022/05/20 04:27:33;;;;;;;5.68;1.55;;;24.00;99.90;;;;;;5036328;28;20287;-80
2022/05/20 04:30:00;;;;;;;8.90;1.95;;;23.90;99.90;;;;;;5036306;28;20304;-83
2022/05/20 04:32:27;;;;;;;7.10;1.63;;;24.00;99.90;;;;;;5035677;28;20288;-83
2022/05/20 04:34:54;;;;;;;1.88;1.77;;;24.00;99.90;;;;;;5036118;28;20621;-84
2022/05/20 04:37:23;;;;;;;6.43;1.70;;;23.90;99.90;;;;;;5035520;28;20201;-85
2022/05/20 04:39:50;;;;;;;5.95;1.80;;;23.90;99.90;;;;;;5035240;28;20207;-85
2022/05/20 04:47:46;;;;;;;26.38;3.75;;;23.90;99.90;;;;;;5035472;28;20188;-86
2022/05/20 04:50:14;;;;;;;16.38;3.00;;;23.90;99.90;;;;;;5035255;28;20315;-80
2022/05/20 04:52:42;;;;;;;13.25;2.05;;;23.80;99.90;;;;;;5035625;28;20311;-84
2022/05/20 04:55:09;;;;;;;10.48;2.80;;;23.80;99.90;;;;;;5035109;28;20631;-86
2022/05/20 04:57:38;;;;;;;7.47;2.33;;;23.80;99.90;;;;;;5035793;28;20197;-87
2022/05/20 05:00:08;;;;;;;3.55;1.98;;;23.80;99.90;;;;;;5035070;28;20288;-85
2022/05/20 05:02:36;;;;;;;3.60;2.17;;;23.70;99.90;;;;;;5034652;28;20264;-85
2022/05/20 05:05:04;;;;;;;1.50;1.50;;;23.70;99.90;;;;;;5034630;28;20203;-86
2022/05/20 05:07:31;;;;;;;6.15;2.03;;;23.70;99.90;;;;;;5034804;28;20207;-86
2022/05/20 05:09:59;;;;;;;3.45;2.50;;;23.70;99.90;;;;;;5034586;28;20217;-81
2022/05/20 05:12:26;;;;;;;16.40;2.83;;;23.70;99.90;;;;;;5045923;28;20232;-81
2022/05/20 05:14:54;;;;;;;12.32;3.03;;;23.60;99.90;;;;;;5044153;28;20292;-81
2022/05/20 05:20:04;;;;;;;16.73;3.63;;;23.60;99.90;;;;;;5041465;28;20189;-81
2022/05/20 05:22:31;;;;;;;3.75;2.55;;;23.60;99.90;;;;;;5042229;28;20255;-82
2022/05/20 05:24:59;;;;;;;3.70;3.05;;;23.60;99.90;;;;;;5042303;28;20201;-81
2022/05/20 05:27:26;;;;;;;6.55;3.58;;;23.60;99.90;;;;;;5039827;28;20287;-84
2022/05/20 05:29:53;;;;;;;11.35;4.38;;;23.50;99.90;;;;;;5037890;28;20220;-83
2022/05/20 05:32:20;;;;;;;19.60;4.78;;;23.50;99.90;;;;;;5038040;28;20295;-85
2022/05/20 05:34:47;;;;;;;13.57;4.53;;;23.50;99.90;;;;;;5037569;28;20287;-85
2022/05/20 05:37:14;;;;;;;8.35;3.78;;;23.60;99.90;;;;;;5038728;28;20288;-84
2022/05/20 05:39:41;;;;;;;11.60;3.70;;;23.60;99.90;;;;;;5039072;28;20260;-84
2022/05/20 05:42:09;;;;;;;9.77;4.28;;;23.60;99.90;;;;;;5039393;28;20292;-83
2022/05/20 05:44:36;;;;;;;14.45;4.28;;;23.60;99.90;;;;;;5039680;28;20283;-82
2022/05/20 05:47:04;;;;;;;9.75;3.80;;;23.60;99.90;;;;;;5045036;28;20205;-82
2022/05/20 05:49:31;;;;;;;9.15;4.22;;;23.60;99.90;;;;;;5043902;28;20284;-83
2022/05/20 05:51:58;;;;;;;10.02;4.38;;;23.60;99.90;;;;;;5044534;28;20208;-81
2022/05/20 05:54:25;;;;;;;4.43;3.63;;;23.60;99.90;;;;;;5041990;28;20304;-82
2022/05/20 05:56:52;;;;;;;7.57;3.15;;;23.60;99.90;;;;;;5041590;28;20197;-82
2022/05/20 05:59:20;;;;;;;8.65;4.60;;;23.60;99.90;;;;;;5038319;28;20204;-83
2022/05/20 06:01:47;;;;;;;16.95;4.78;;;23.60;99.90;;;;;;5039275;28;20291;-83
2022/05/20 06:04:14;;;;;;;9.43;5.53;;;23.60;99.90;;;;;;5036720;28;20233;-82
2022/05/20 06:06:41;;;;;;;12.77;4.40;;;23.60;99.90;;;;;;5036627;28;20200;-82
2022/05/20 06:09:08;;;;;;;9.98;4.60;;;23.60;99.90;;;;;;5035812;28;20228;-82
2022/05/20 06:11:35;;;;;;;8.07;4.68;;;23.60;99.90;;;;;;5035478;28;20622;-82
2022/05/20 06:14:01;;;;;;;11.57;5.13;;;23.60;99.90;;;;;;5035270;28;20327;-83
2022/05/20 06:16:30;;;;;;;9.05;4.30;;;23.60;99.90;;;;;;5034706;28;20260;-82
2022/05/20 06:18:57;;;;;;;8.70;4.10;;;23.60;99.90;;;;;;5035064;28;20204;-82
2022/05/20 06:21:24;;;;;;;15.45;5.28;;;23.60;99.90;;;;;;5035207;28;20228;-83
2022/05/20 06:23:51;;;;;;;5.38;4.40;;;23.60;99.90;;;;;;5034803;28;20748;-83
2022/05/20 06:26:17;;;;;;;11.77;4.45;;;23.60;99.90;;;;;;5036147;28;20291;-83
2022/05/20 06:28:44;;;;;;;4.40;4.00;;;23.60;99.90;;;;;;5039233;28;20207;-83
2022/05/20 06:31:11;;;;;;;6.68;4.38;;;23.70;99.90;;;;;;5038776;28;20221;-83
2022/05/20 06:33:40;;;;;;;13.93;4.75;;;23.70;99.90;;;;;;5038684;28;20295;-83
2022/05/20 06:41:36;;;;;;;4.53;4.03;;;23.60;99.90;;;;;;5038608;28;20176;-82
2022/05/20 06:44:03;;;;;;;5.82;4.10;;;23.60;99.90;;;;;;5038537;28;20220;-83
2022/05/20 06:46:30;;;;;;;8.27;4.70;;;23.60;99.90;;;;;;5038651;28;20546;-83
2022/05/20 06:48:59;;;;;;;9.82;4.30;;;23.60;99.90;;;;;;5038563;28;20210;-83
2022/05/20 06:51:28;;;;;;;8.68;3.85;;;23.70;99.90;;;;;;5038289;28;20307;-82
2022/05/20 06:53:57;;;;;;;11.65;4.63;;;23.70;99.90;;;;;;5038532;28;20225;-83
2022/05/20 06:56:27;;;;;;;7.38;4.60;;;23.70;99.90;;;;;;5038504;28;20228;-83
2022/05/20 06:58:55;;;;;;;6.78;4.20;;;23.70;99.90;;;;;;5038030;28;20528;-82
2022/05/20 07:01:22;;;;;;;8.50;4.53;;;23.70;99.90;;;;;;5038554;28;20228;-83
2022/05/20 07:03:50;;;;;;;7.82;4.68;;;23.70;99.90;;;;;;5037536;28;20573;-83
2022/05/20 07:06:18;;;;;;;8.00;4.78;;;23.70;99.90;;;;;;5038156;28;20287;-83
2022/05/20 07:08:48;;;;;;;9.50;4.22;;;23.70;99.90;;;;;;5037664;28;20269;-83
2022/05/20 07:11:15;;;;;;;8.82;4.40;;;23.70;99.90;;;;;;5037246;28;20221;-83
2022/05/20 07:13:42;;;;;;;6.75;4.57;;;23.70;99.90;;;;;;5037875;28;20221;-83
2022/05/20 07:16:09;;;;;;;8.35;4.43;;;23.70;99.90;;;;;;5038075;28;20227;-83
2022/05/20 07:18:36;;;;;;;10.13;4.60;;;23.70;99.90;;;;;;5037771;28;20735;-82
2022/05/20 07:21:03;;;;;;;6.55;4.28;;;23.70;99.90;;;;;;5037396;28;20288;-83
2022/05/20 07:23:32;;;;;;;7.70;3.97;;;23.70;99.90;;;;;;5037785;28;20556;-83
2022/05/20 07:26:00;;;;;;;11.10;4.20;;;23.70;99.90;;;;;;5037216;28;20534;-83
2022/05/20 07:28:28;;;;;;;11.52;4.38;;;23.70;99.90;;;;;;5037629;28;20247;-83
2022/05/20 07:30:55;;;;;;;11.05;4.53;;;23.70;99.90;;;;;;5037247;28;20227;-82
2022/05/20 07:33:22;;;;;;;9.35;4.03;;;23.70;99.90;;;;;;5037514;28;20651;-82
2022/05/20 07:35:49;;;;;;;8.85;4.25;;;23.70;99.90;;;;;;5037989;28;20293;-82
2022/05/20 07:38:16;;;;;;;8.18;4.72;;;23.70;99.90;;;;;;5037291;28;20233;-82
2022/05/20 07:40:45;;;;;;;6.00;4.18;;;23.70;99.90;;;;;;5037747;28;20224;-82
2022/05/20 07:43:12;;;;;;;4.20;3.80;;;23.80;99.90;;;;;;5036994;28;20770;-83
2022/05/20 07:45:39;;;;;;;5.53;4.15;;;23.70;99.90;;;;;;5037426;28;20217;-83
2022/05/20 07:48:07;;;;;;;10.95;4.93;;;23.70;99.90;;;;;;5037401;28;20205;-83
2022/05/20 07:50:40;;;;;;;9.85;4.15;;;23.70;99.90;;;;;;5037227;28;20221;-83
2022/05/20 07:53:22;;;;;;;8.13;4.00;;;23.70;99.90;;;;;;5037224;28;20229;-83
2022/05/20 07:55:55;;;;;;;12.05;4.03;;;23.70;99.90;;;;;;5037494;28;20192;-83
2022/05/20 07:58:27;;;;;;;11.15;4.10;;;23.80;99.90;;;;;;5037497;28;20277;-83
2022/05/20 08:00:58;;;;;;;6.50;3.30;;;23.70;99.90;;;;;;5037379;28;20276;-83
2022/05/20 08:06:11;;;;;;;5.20;3.47;;;23.80;99.90;;;;;;5037378;28;20639;-83
2022/05/20 08:08:37;;;;;;;6.90;3.50;;;23.80;99.90;;;;;;5036768;28;20197;-83
2022/05/20 08:11:06;;;;;;;9.00;3.70;;;23.80;99.90;;;;;;5036802;28;20319;-83
2022/05/20 08:13:33;;;;;;;6.05;4.03;;;23.80;99.90;;;;;;5037011;28;20247;-83
2022/05/20 08:15:59;;;;;;;6.55;3.20;;;23.80;99.90;;;;;;5036657;28;20268;-83
2022/05/20 08:18:26;;;;;;;7.20;3.65;;;23.80;99.90;;;;;;5036846;28;20232;-82
2022/05/20 08:20:55;;;;;;;7.75;3.60;;;23.80;99.90;;;;;;5036482;28;20280;-83
2022/05/20 08:23:22;;;;;;;7.22;3.45;;;23.80;99.90;;;;;;5036666;28;20220;-83
2022/05/20 08:25:48;;;;;;;7.65;3.08;;;23.80;99.90;;;;;;5036184;28;20233;-83
2022/05/20 08:28:18;;;;;;;4.25;3.20;;;23.80;99.90;;;;;;5036348;28;20319;-83
2022/05/20 08:30:45;;;;;;;7.00;3.42;;;23.80;99.90;;;;;;5036529;28;20256;-83
2022/05/20 08:33:12;;;;;;;7.40;3.70;;;23.80;99.90;;;;;;5036579;28;20221;-83
2022/05/20 08:35:39;;;;;;;4.45;3.05;;;23.80;99.90;;;;;;5036379;28;20625;-83
2022/05/20 08:38:06;;;;;;;6.93;3.47;;;23.80;99.90;;;;;;5036262;28;20240;-82
2022/05/20 08:40:39;;;;;;;7.47;3.13;;;23.80;99.90;;;;;;5036375;28;20555;-82
2022/05/20 08:43:06;;;;;;;4.15;2.97;;;23.80;99.90;;;;;;5036065;28;20220;-83
2022/05/20 08:45:34;;;;;;;7.68;3.33;;;23.80;99.90;;;;;;5037061;28;20288;-83
2022/05/20 08:48:04;;;;;;;5.32;3.13;;;23.80;99.90;;;;;;5038409;28;20205;-83
2022/05/20 08:50:36;;;;;;;6.65;3.08;;;23.80;99.90;;;;;;5036286;28;20255;-83
2022/05/20 08:53:05;;;;;;;6.97;3.38;;;23.90;99.90;;;;;;5037224;28;20308;-83
2022/05/20 08:55:32;;;;;;;6.25;2.90;;;23.80;99.90;;;;;;5036975;28;20636;-83
2022/05/20 08:58:01;;;;;;;5.82;3.00;;;23.80;99.90;;;;;;5036862;28;20650;-83
2022/05/20 09:00:29;;;;;;;6.10;2.95;;;23.80;99.90;;;;;;5036241;28;20638;-83
2022/05/20 09:02:58;;;;;;;5.28;3.60;;;23.80;99.90;;;;;;5036500;28;20311;-83
2022/05/20 09:05:30;;;;;;;4.82;2.58;;;23.90;99.90;;;;;;5036131;28;20686;-83
2022/05/20 09:08:03;;;;;;;8.65;3.00;;;23.80;99.90;;;;;;5036366;28;20652;-83
2022/05/20 09:10:33;;;;;;;8.18;3.10;;;23.80;99.90;;;;;;5036408;28;20228;-83
2022/05/20 09:13:07;;;;;;;11.07;3.50;;;23.90;99.90;;;;;;5035839;28;20328;-83
2022/05/20 09:18:32;;;;;;;8.23;2.90;;;23.90;99.90;;;;;;5034196;28;20197;-82
2022/05/20 09:20:59;;;;;;;5.00;3.25;;;23.90;99.90;;;;;;5035584;28;20181;-83
2022/05/20 09:23:27;;;;;;;5.93;3.38;;;23.90;99.90;;;;;;5035940;28;20243;-83
2022/05/20 09:26:03;;;;;;;6.20;2.85;;;23.90;99.90;;;;;;5035714;28;20284;-83
2022/05/20 09:28:35;;;;;;;7.10;3.17;;;23.90;99.90;;;;;;5035555;28;20188;-83
2022/05/20 09:31:16;;;;;;;5.78;2.63;;;23.90;99.90;;;;;;5035850;28;20255;-83
2022/05/20 09:33:52;;;;;;;5.25;3.50;;;23.90;99.90;;;;;;5035508;28;20638;-83
2022/05/20 09:36:43;;;;;;;2.72;2.63;;;23.90;99.90;;;;;;5035298;28;20272;-83
2022/05/20 09:39:15;;;;;;;5.32;2.80;;;24.00;99.90;;;;;;5035485;28;20272;-83
2022/05/20 09:41:51;;;;;;;3.03;2.60;;;23.90;99.90;;;;;;5035781;28;20223;-82
2022/05/20 09:44:23;;;;;;;4.32;2.97;;;23.90;99.90;;;;;;5035543;28;20775;-83
2022/05/20 09:46:54;;;;;;;8.30;3.47;;;23.90;99.90;;;;;;5035761;28;20189;-83
2022/05/20 09:49:33;;;;;;;8.35;2.70;;;23.90;99.90;;;;;;5035306;28;20181;-83
2022/05/20 09:52:01;;;;;;;4.30;2.53;;;24.00;99.90;;;;;;5035063;28;20299;-83
2022/05/20 09:54:32;;;;;;;7.32;3.05;;;23.90;99.90;;;;;;5034938;28;20303;-82
2022/05/20 09:57:06;;;;;;;7.20;2.63;;;23.90;99.90;;;;;;5035176;28;20268;-82
2022/05/20 09:59:39;;;;;;;2.38;2.28;;;24.00;99.90;;;;;;5034966;28;20268;-83
2022/05/20 10:02:15;;;;;;;2.47;2.28;;;23.90;99.90;;;;;;5034594;28;20188;-83
2022/05/20 10:04:54;;;;;;;3.55;2.97;;;24.00;99.90;;;;;;5035075;28;20263;-83
2022/05/20 10:07:34;;;;;;;7.68;2.83;;;24.00;99.90;;;;;;5035149;28;20272;-83
2022/05/20 10:10:09;;;;;;;3.63;3.03;;;24.00;99.90;;;;;;5034952;28;20287;-82
2022/05/20 10:12:38;;;;;;;7.00;2.60;;;24.00;99.90;;;;;;5034523;28;20306;-83
2022/05/20 10:15:12;;;;;;;5.45;2.78;;;23.90;99.90;;;;;;5035120;28;20196;-83
2022/05/20 10:17:53;;;;;;;6.20;2.88;;;24.00;99.90;;;;;;5036569;28;20200;-83
2022/05/20 10:20:28;;;;;;;6.00;2.67;;;24.00;99.90;;;;;;5035110;28;20621;-83
2022/05/20 10:23:02;;;;;;;4.68;2.53;;;24.00;99.90;;;;;;5035409;28;20725;-82
2022/05/20 10:25:35;;;;;;;5.60;3.08;;;24.00;99.90;;;;;;5035078;28;20272;-82
2022/05/20 10:28:07;;;;;;;3.58;2.90;;;24.00;99.90;;;;;;5034949;28;20272;-83
2022/05/20 10:33:29;;;;;;;3.15;2.63;;;24.00;99.90;;;;;;5034702;28;20228;-83
2022/05/20 10:36:07;;;;;;;5.20;2.40;;;24.00;99.90;;;;;;5034283;28;20220;-83
2022/05/20 10:38:45;;;;;;;6.88;2.83;;;24.00;99.90;;;;;;5034655;28;20185;-83
2022/05/20 10:41:20;;;;;;;3.00;2.72;;;24.00;99.90;;;;;;5034408;28;20271;-79
2022/05/20 10:49:53;;;;;;;3.13;2.80;;;24.00;99.90;;;;;;5034389;28;20536;-81
2022/05/20 10:52:39;;;;;;;6.47;2.70;;;24.00;99.90;;;;;;5034117;28;20698;-81
2022/05/20 10:55:19;;;;;;;17.48;4.05;;;24.00;99.90;;;;;;5033846;28;20189;-80
2022/05/20 10:58:05;;;;;;;10.75;3.10;;;24.00;99.90;;;;;;5034112;28;20552;-80
2022/05/20 11:00:41;;;;;;;13.90;3.13;;;24.00;99.90;;;;;;5034269;28;20189;-80
2022/05/20 11:03:42;;;;;;;14.32;3.40;;;24.00;99.90;;;;;;5033927;28;20256;-80
2022/05/20 11:06:39;;;;;;;4.10;3.22;;;24.10;99.90;;;;;;5015132;28;20279;-80
2022/05/20 11:09:09;;;;;;;11.52;5.10;;;24.10;99.90;;;;;;5028627;28;20279;-80
2022/05/20 11:11:57;;;;;;;8.18;5.30;;;24.10;99.90;;;;;;5043529;28;20213;-80
2022/05/20 11:14:59;;;;;;;8.85;5.28;;;24.20;99.90;;;;;;5046716;28;20323;-81
2022/05/20 11:17:56;;;;;;;13.55;5.22;;;24.20;99.90;;;;;;5047669;28;20192;-81
2022/05/20 11:20:40;;;;;;;7.63;4.55;;;24.20;99.90;;;;;;5047249;28;20594;-81
2022/05/20 11:23:31;;;;;;;7.18;4.22;;;24.20;99.90;;;;;;5046418;28;20716;-81
2022/05/20 11:26:23;;;;;;;10.90;5.15;;;24.30;99.90;;;;;;5046309;28;20185;-81
2022/05/20 11:29:39;;;;;;;6.00;3.80;;;24.30;99.90;;;;;;5043509;28;20185;-81
2022/05/20 11:32:08;;;;;;;33.92;5.13;;;24.30;99.90;;;;;;5042575;28;20215;-80
2022/05/20 11:34:55;;;;;;;9.35;3.63;;;24.30;99.90;;;;;;5057355;22;20220;-89
2022/05/20 11:37:38;;;;;;;14.43;5.78;;;24.30;99.90;;;;;;5039323;28;20205;-88
2022/05/20 11:40:21;;;;;;;10.15;5.03;;;24.30;99.90;;;;;;5041852;28;20189;-88
2022/05/20 11:43:16;;;;;;;15.13;4.35;;;24.40;99.90;;;;;;5042087;28;20181;-86
2022/05/20 11:45:51;;;;;;;14.02;4.45;;;24.40;99.90;;;;;;5033100;28;20232;-86
2022/05/20 11:48:56;;;;;;;4.45;3.83;;;24.40;99.90;;;;;;5043199;28;20181;-86
2022/05/20 11:51:53;;;;;;;7.68;3.58;;;24.40;99.90;;;;;;5042612;28;20217;-87
2022/05/20 11:54:27;;;;;;;4.70;3.30;;;24.40;99.90;;;;;;5041796;28;20695;-87
2022/05/20 11:56:58;;;;;;;9.32;3.25;;;24.40;99.90;;;;;;5036418;28;20236;-88
2022/05/20 11:59:31;;;;;;;9.75;3.50;;;24.40;99.90;;;;;;5036771;28;20272;-86
2022/05/20 12:02:00;;;;;;;5.07;3.17;;;24.50;99.90;;;;;;5036974;28;20604;-85
2022/05/20 12:04:31;;;;;;;7.22;3.58;;;24.40;99.90;;;;;;5036022;28;20299;-86
2022/05/20 12:07:03;;;;;;;7.50;3.22;;;24.50;99.90;;;;;;5035793;28;20696;-85
2022/05/20 12:10:18;;;;;;;11.73;3.85;;;24.50;99.90;;;;;;5038059;28;20250;-86
2022/05/20 12:12:52;;;;;;;15.63;4.13;;;24.60;99.80;;;;;;5035691;28;20220;-85
2022/05/20 12:15:47;;;;;;;9.73;3.30;;;24.50;99.90;;;;;;5036341;28;20567;-84
2022/05/20 12:24:33;;;;;;;7.22;2.70;;;24.50;99.10;;;;;;5036259;28;20691;-87
2022/05/20 12:27:01;;;;;;;4.75;2.40;;;24.50;98.70;;;;;;5037418;28;20200;-87
2022/05/20 12:30:03;;;;;;;4.32;3.13;;;24.50;98.40;;;;;;5035484;28;20211;-85
2022/05/20 12:32:47;;;;;;;9.80;3.35;;;24.60;97.50;;;;;;4955831;29;20208;-85
2022/05/20 12:35:20;;;;;;;9.80;2.72;;;24.60;97.50;;;;;;4957158;29;20304;-83
2022/05/20 12:38:25;;;;;;;11.60;2.60;;;24.60;97.40;;;;;;5009202;28;20635;-84
2022/05/20 12:41:00;;;;;;;8.40;2.60;;;24.60;96.80;;;;;;5038392;28;20663;-82
2022/05/20 12:43:58;;;;;;;4.28;2.20;;;24.60;96.80;;;;;;5038922;28;20523;-81
2022/05/20 12:46:49;;;;;;;6.05;2.10;;;24.70;96.40;;;;;;5036795;28;20624;-82
2022/05/20 12:49:18;;;;;;;8.20;2.30;;;24.70;96.10;;;;;;5039680;28;20299;-81
2022/05/20 12:51:50;;;;;;;4.10;2.15;;;24.70;96.20;;;;;;5036718;28;20318;-80
2022/05/20 12:54:20;;;;;;;7.13;1.80;;;24.70;96.00;;;;;;5038740;28;20248;-82
2022/05/20 12:56:48;;;;;;;9.18;1.85;;;24.70;95.80;;;;;;5037147;28;20575;-81
2022/05/20 12:59:20;;;;;;;2.75;1.67;;;24.70;95.60;;;;;;5038842;28;20655;-81
2022/05/20 13:01:56;;;;;;;2.53;1.20;;;24.70;95.50;;;;;;5044171;28;20185;-81
2022/05/20 13:04:27;;;;;;;13.63;2.38;;;24.70;95.30;;;;;;5040045;28;20647;-85
2022/05/20 13:06:58;;;;;;;39.88;4.47;;;24.80;95.40;;;;;;5040214;28;20199;-83
2022/05/20 13:09:29;;;;;;;56.90;4.63;;;24.70;95.20;;;;;;5041650;28;20196;-82
2022/05/20 13:12:05;;;;;;;33.50;3.92;;;24.80;95.20;;;;;;5038887;28;20224;-84
2022/05/20 13:14:35;;;;;;;38.42;4.68;;;24.80;95.20;;;;;;5039023;28;20761;-85
2022/05/20 13:17:04;;;;;;;33.10;3.80;;;24.80;95.20;;;;;;5038865;28;20177;-82
2022/05/20 13:19:42;;;;;;;33.65;3.95;;;24.80;95.30;;;;;;5042832;28;20670;-83
2022/05/20 13:22:12;;;;;;;44.42;3.80;;;24.90;95.20;;;;;;5036235;28;20625;-87
2022/05/20 13:24:41;;;;;;;23.95;3.33;;;24.80;95.40;;;;;;5035882;28;20639;-86
2022/05/20 13:27:10;;;;;;;26.65;3.65;;;24.90;95.50;;;;;;5035987;28;20209;-83
2022/05/20 13:29:38;;;;;;;22.67;3.08;;;24.90;95.40;;;;;;5039509;28;20287;-83
2022/05/20 13:32:16;;;;;;;16.40;3.97;;;24.90;95.40;;;;;;5039724;28;20307;-83
2022/05/20 13:34:47;;;;;;;41.20;3.85;;;24.90;95.60;;;;;;5038379;28;20232;-83
2022/05/20 13:37:16;;;;;;;17.15;3.40;;;24.90;95.20;;;;;;5038853;28;20295;-83
2022/05/20 13:39:45;;;;;;;13.93;3.10;;;24.90;95.20;;;;;;5039277;28;20284;-82
2022/05/20 13:42:15;;;;;;;14.40;2.78;;;24.90;95.20;;;;;;5034592;28;20640;-86
2022/05/20 13:44:44;;;;;;;12.75;2.47;;;24.90;95.20;;;;;;5037393;28;20331;-83
2022/05/20 13:50:00;;;;;;;18.17;3.05;;;24.90;95.20;;;;;;5039998;28;20247;-82
2022/05/20 13:52:29;;;;;;;11.20;2.60;;;24.90;95.20;;;;;;5044134;28;20208;-83
2022/05/20 13:55:01;;;;;;;11.05;2.80;;;24.90;95.20;;;;;;5043886;28;20223;-83